Time;durP1;ratioP1;P1;durP2;ratioP2;P2;SDS_P1;SDS_P2;PMS_P1;PMS_P2;Temp;Humidity;BMP_temperature;BMP_pressure;BME280_temperature;BME280_humidity;BME280_pressure;Samples;Min_cycle;Max_cycle;Signal;HPM_P1;HPM_P2
2021/05/05 00:01:14;;;;;;;2.83;0.90;;;10.30;72.70;;;;;;3591574;40;20305;-61
2021/05/05 00:03:39;;;;;;;2.95;1.13;;;10.30;72.80;;;;;;3590306;40;20041;-62
2021/05/05 00:06:06;;;;;;;5.30;0.88;;;10.40;72.60;;;;;;3585394;40;20044;-62
2021/05/05 00:08:32;;;;;;;3.13;1.45;;;10.30;72.60;;;;;;3587468;40;20046;-62
2021/05/05 00:10:58;;;;;;;4.05;1.13;;;10.30;73.10;;;;;;3589231;39;20448;-62
2021/05/05 00:13:23;;;;;;;3.60;1.00;;;10.20;73.30;;;;;;3590805;40;20419;-62
2021/05/05 00:15:49;;;;;;;3.58;0.80;;;10.20;73.30;;;;;;3590397;39;20043;-62
2021/05/05 00:18:15;;;;;;;3.35;0.68;;;10.20;73.80;;;;;;3589248;40;20032;-62
2021/05/05 00:20:41;;;;;;;4.47;1.10;;;10.10;73.50;;;;;;3585779;40;20048;-62
2021/05/05 00:23:06;;;;;;;2.00;0.77;;;10.10;73.60;;;;;;3586160;39;20013;-62
2021/05/05 00:25:33;;;;;;;1.83;0.93;;;10.10;74.00;;;;;;3584277;40;20013;-62
2021/05/05 00:27:59;;;;;;;3.15;0.85;;;10.20;73.90;;;;;;3582448;40;20032;-60
2021/05/05 00:30:26;;;;;;;2.85;1.10;;;10.10;74.00;;;;;;3583815;40;20488;-60
2021/05/05 00:32:52;;;;;;;5.65;1.10;;;10.20;73.50;;;;;;3584360;40;20040;-61
2021/05/05 00:35:18;;;;;;;5.00;0.82;;;10.20;73.70;;;;;;3586303;40;20381;-62
2021/05/05 00:37:44;;;;;;;3.95;0.90;;;10.20;73.10;;;;;;3588630;40;20043;-62
2021/05/05 00:40:12;;;;;;;1.65;0.88;;;10.20;73.70;;;;;;3582881;40;20118;-60
2021/05/05 00:42:39;;;;;;;3.22;1.65;;;10.20;73.70;;;;;;3582277;40;20029;-62
2021/05/05 00:45:09;;;;;;;4.63;1.02;;;10.30;74.00;;;;;;3583942;40;20039;-62
2021/05/05 00:47:35;;;;;;;4.40;0.85;;;10.30;73.60;;;;;;3585861;40;20024;-62
2021/05/05 00:50:00;;;;;;;1.98;1.00;;;10.40;73.20;;;;;;3587092;39;20028;-62
2021/05/05 00:52:27;;;;;;;3.00;0.80;;;10.40;73.00;;;;;;3588991;39;20550;-62
2021/05/05 00:54:53;;;;;;;2.85;1.10;;;10.30;73.10;;;;;;3590753;39;20017;-62
2021/05/05 00:57:19;;;;;;;2.65;1.08;;;10.40;72.60;;;;;;3589917;40;20043;-62
2021/05/05 00:59:45;;;;;;;1.73;0.70;;;10.30;72.80;;;;;;3579314;40;20410;-62
2021/05/05 01:02:12;;;;;;;3.67;1.00;;;10.30;72.80;;;;;;3586423;39;20221;-63
2021/05/05 01:04:38;;;;;;;3.33;1.00;;;10.40;72.20;;;;;;3583433;40;20032;-62
2021/05/05 01:07:04;;;;;;;1.52;0.88;;;10.40;72.40;;;;;;3586651;39;20028;-64
2021/05/05 01:09:30;;;;;;;2.65;0.90;;;10.40;72.60;;;;;;3589953;40;20028;-62
2021/05/05 01:11:56;;;;;;;1.92;0.85;;;10.40;72.60;;;;;;3589415;40;20032;-62
2021/05/05 01:14:23;;;;;;;4.93;1.30;;;10.30;72.60;;;;;;3586433;40;20078;-62
2021/05/05 01:16:53;;;;;;;3.88;1.10;;;10.10;73.00;;;;;;3584953;40;20039;-62
2021/05/05 01:19:19;;;;;;;3.85;1.10;;;10.10;72.50;;;;;;3582352;40;20040;-63
2021/05/05 01:21:45;;;;;;;5.60;1.42;;;10.00;73.00;;;;;;3581600;40;20040;-63
2021/05/05 01:24:12;;;;;;;3.60;0.75;;;10.00;72.80;;;;;;3580328;40;20053;-62
2021/05/05 01:26:39;;;;;;;2.38;1.00;;;10.00;72.50;;;;;;3582391;40;20036;-62
2021/05/05 01:29:05;;;;;;;1.98;1.00;;;10.00;72.90;;;;;;3585848;40;20424;-62
2021/05/05 01:31:31;;;;;;;3.00;0.90;;;9.90;73.20;;;;;;3587002;39;20156;-62
2021/05/05 01:33:58;;;;;;;3.72;1.13;;;10.00;73.10;;;;;;3588708;39;20031;-62
2021/05/05 01:36:29;;;;;;;4.45;1.20;;;10.00;73.00;;;;;;3590566;39;20052;-62
2021/05/05 01:38:55;;;;;;;6.10;1.20;;;10.00;73.20;;;;;;3589735;40;20435;-63
2021/05/05 01:41:22;;;;;;;3.25;1.27;;;10.00;73.10;;;;;;3586467;40;20113;-62
2021/05/05 01:43:48;;;;;;;5.45;1.45;;;10.00;72.60;;;;;;3586225;40;20301;-59
2021/05/05 01:46:17;;;;;;;1.80;0.77;;;10.10;72.60;;;;;;3584690;40;20025;-58
2021/05/05 01:48:43;;;;;;;4.43;0.80;;;10.10;72.50;;;;;;3589172;40;20105;-60
2021/05/05 01:51:09;;;;;;;6.22;1.15;;;10.10;73.20;;;;;;3590049;40;20031;-60
2021/05/05 01:53:34;;;;;;;6.35;1.13;;;10.10;72.80;;;;;;3588049;40;20020;-60
2021/05/05 01:56:01;;;;;;;3.55;1.10;;;10.10;73.30;;;;;;3587332;40;20129;-61
2021/05/05 01:58:28;;;;;;;2.88;1.13;;;10.10;73.30;;;;;;3584243;40;20157;-60
2021/05/05 02:01:00;;;;;;;6.28;1.50;;;10.00;73.20;;;;;;3587847;40;20343;-60
2021/05/05 02:03:25;;;;;;;4.45;1.10;;;10.00;73.50;;;;;;3581235;40;20634;-60
2021/05/05 02:05:57;;;;;;;2.72;1.15;;;9.90;73.80;;;;;;3581015;40;20029;-62
2021/05/05 02:08:49;;;;;;;3.63;1.00;;;9.90;73.80;;;;;;3586231;40;20137;-60
2021/05/05 02:11:16;;;;;;;4.30;1.20;;;9.90;73.70;;;;;;3584245;40;20068;-60
2021/05/05 02:13:43;;;;;;;5.55;1.13;;;9.90;73.90;;;;;;3587318;40;20024;-61
2021/05/05 02:16:09;;;;;;;3.38;1.35;;;9.90;73.70;;;;;;3589059;40;20509;-60
2021/05/05 02:18:39;;;;;;;4.32;1.35;;;9.90;73.40;;;;;;3589420;40;20036;-61
2021/05/05 02:21:06;;;;;;;2.35;0.98;;;9.90;73.30;;;;;;3588152;40;20048;-61
2021/05/05 02:23:32;;;;;;;2.80;1.02;;;9.90;73.70;;;;;;3587823;39;20028;-61
2021/05/05 02:25:58;;;;;;;2.88;1.17;;;9.90;73.50;;;;;;3585153;40;20029;-61
2021/05/05 02:28:25;;;;;;;6.32;1.10;;;9.90;73.20;;;;;;3584351;40;20309;-65
2021/05/05 02:31:17;;;;;;;2.05;0.85;;;9.90;73.20;;;;;;3589748;40;20033;-65
2021/05/05 02:33:43;;;;;;;2.88;1.10;;;9.90;72.10;;;;;;3586245;40;20125;-65
2021/05/05 02:36:09;;;;;;;4.25;1.23;;;9.80;72.40;;;;;;3583495;39;20102;-65
2021/05/05 02:38:37;;;;;;;6.38;1.17;;;9.80;73.20;;;;;;3587611;40;20049;-66
2021/05/05 02:41:05;;;;;;;5.38;1.23;;;9.70;73.00;;;;;;3588490;40;20117;-65
2021/05/05 02:43:32;;;;;;;4.38;1.20;;;9.60;73.80;;;;;;3587334;40;20530;-64
2021/05/05 02:45:58;;;;;;;4.18;0.90;;;9.60;73.60;;;;;;3591145;40;20036;-65
2021/05/05 02:48:24;;;;;;;4.03;1.98;;;9.50;73.60;;;;;;3587444;39;20052;-66
2021/05/05 02:50:50;;;;;;;3.08;1.10;;;9.50;73.80;;;;;;3585457;39;20785;-66
2021/05/05 02:53:16;;;;;;;2.40;1.15;;;9.50;74.30;;;;;;3587785;40;20582;-65
2021/05/05 02:55:42;;;;;;;3.00;1.20;;;9.40;74.30;;;;;;3583250;40;20056;-66
2021/05/05 02:58:08;;;;;;;4.88;0.85;;;9.40;74.10;;;;;;3583400;40;20125;-66
2021/05/05 03:00:34;;;;;;;2.75;1.10;;;9.40;74.50;;;;;;3588743;39;20020;-66
2021/05/05 03:02:59;;;;;;;2.90;1.20;;;9.30;74.70;;;;;;3587018;40;20107;-65
2021/05/05 03:05:25;;;;;;;2.22;1.00;;;9.30;75.20;;;;;;3588431;40;20020;-65
2021/05/05 03:07:51;;;;;;;6.40;1.40;;;9.30;75.10;;;;;;3587077;39;20033;-66
2021/05/05 03:10:18;;;;;;;4.97;1.50;;;9.30;75.30;;;;;;3588060;40;20084;-66
2021/05/05 03:12:43;;;;;;;3.85;1.08;;;9.30;75.70;;;;;;3592190;40;20526;-66
2021/05/05 03:15:10;;;;;;;3.38;1.05;;;9.30;74.80;;;;;;3584899;40;20036;-66
2021/05/05 03:17:37;;;;;;;4.00;1.20;;;9.40;75.00;;;;;;3586289;40;20114;-66
2021/05/05 03:20:10;;;;;;;3.45;1.40;;;9.40;74.80;;;;;;3584494;40;20106;-66
2021/05/05 03:22:37;;;;;;;3.70;1.25;;;9.40;74.80;;;;;;3588526;39;20016;-66
2021/05/05 03:25:08;;;;;;;5.30;1.92;;;9.40;74.10;;;;;;3588010;40;20028;-66
2021/05/05 03:27:34;;;;;;;4.50;1.38;;;9.40;74.40;;;;;;3584585;39;20064;-66
2021/05/05 03:30:00;;;;;;;2.40;1.20;;;9.40;74.00;;;;;;3588869;40;20122;-64
2021/05/05 03:32:26;;;;;;;6.80;1.35;;;9.50;73.80;;;;;;3585613;40;20048;-66
2021/05/05 03:34:52;;;;;;;4.75;1.35;;;9.40;74.00;;;;;;3586010;39;20044;-66
2021/05/05 03:37:18;;;;;;;1.77;1.00;;;9.40;73.90;;;;;;3585974;39;20047;-66
2021/05/05 03:39:43;;;;;;;3.60;1.40;;;9.40;73.50;;;;;;3588668;40;20290;-65
2021/05/05 03:42:09;;;;;;;3.60;1.33;;;9.40;73.30;;;;;;3587603;40;20055;-66
2021/05/05 03:44:35;;;;;;;5.50;1.50;;;9.40;72.90;;;;;;3587431;40;20320;-66
2021/05/05 03:47:01;;;;;;;3.28;1.00;;;9.40;73.00;;;;;;3584923;39;20040;-66
2021/05/05 03:49:27;;;;;;;3.60;1.25;;;9.40;73.00;;;;;;3586930;40;20036;-66
2021/05/05 03:51:53;;;;;;;4.55;1.10;;;9.40;73.00;;;;;;3588021;40;20028;-65
2021/05/05 03:54:18;;;;;;;2.05;1.10;;;9.50;72.30;;;;;;3586393;40;20044;-66
2021/05/05 03:56:44;;;;;;;3.67;1.50;;;9.60;71.50;;;;;;3582160;40;20036;-66
2021/05/05 03:59:10;;;;;;;2.65;1.40;;;9.60;71.70;;;;;;3586153;40;20409;-66
2021/05/05 04:01:36;;;;;;;3.03;1.08;;;9.60;71.50;;;;;;3586133;40;20410;-65
2021/05/05 04:04:02;;;;;;;4.43;1.30;;;9.60;71.30;;;;;;3586378;40;20391;-65
2021/05/05 04:06:27;;;;;;;3.13;1.27;;;9.50;70.30;;;;;;3586664;40;20033;-65
2021/05/05 04:08:53;;;;;;;2.70;1.27;;;9.60;70.70;;;;;;3581922;40;20016;-64
2021/05/05 04:11:19;;;;;;;2.75;1.05;;;9.60;70.90;;;;;;3583853;40;20072;-65
2021/05/05 04:13:45;;;;;;;4.35;1.85;;;9.60;70.10;;;;;;3584982;40;20034;-65
2021/05/05 04:16:11;;;;;;;4.93;1.10;;;9.70;70.70;;;;;;3585801;40;20024;-65
2021/05/05 04:18:37;;;;;;;3.15;1.30;;;9.70;69.80;;;;;;3587332;40;20032;-66
2021/05/05 04:21:04;;;;;;;6.40;1.35;;;9.80;69.20;;;;;;3582836;40;20060;-66
2021/05/05 04:23:31;;;;;;;4.53;0.73;;;9.80;69.60;;;;;;3584675;39;20028;-65
2021/05/05 04:25:57;;;;;;;2.15;0.90;;;9.80;68.40;;;;;;3585638;40;20678;-66
2021/05/05 04:28:24;;;;;;;2.13;1.00;;;9.70;67.80;;;;;;3586744;39;20033;-66
2021/05/05 04:30:50;;;;;;;3.88;1.10;;;9.70;68.70;;;;;;3586683;40;20061;-66
2021/05/05 04:33:16;;;;;;;2.40;1.05;;;9.80;67.70;;;;;;3589607;40;20059;-68
2021/05/05 04:35:41;;;;;;;2.83;0.98;;;9.80;68.30;;;;;;3588121;40;20036;-68
2021/05/05 04:38:07;;;;;;;2.97;1.10;;;9.80;66.70;;;;;;3585531;40;20033;-68
2021/05/05 04:40:33;;;;;;;5.50;1.88;;;9.80;67.30;;;;;;3585275;40;20648;-66
2021/05/05 04:42:59;;;;;;;4.72;1.35;;;9.80;67.40;;;;;;3586167;39;20841;-66
2021/05/05 04:45:24;;;;;;;2.65;1.20;;;9.80;66.80;;;;;;3586992;40;20028;-66
2021/05/05 04:47:50;;;;;;;7.70;1.58;;;9.80;66.80;;;;;;3585861;40;20380;-66
2021/05/05 04:50:16;;;;;;;3.40;0.73;;;9.80;66.90;;;;;;3584864;40;20040;-65
2021/05/05 04:52:43;;;;;;;4.07;1.35;;;9.90;67.70;;;;;;3585347;40;20743;-65
2021/05/05 04:55:09;;;;;;;1.88;1.15;;;10.00;66.90;;;;;;3582186;40;20161;-66
2021/05/05 04:57:35;;;;;;;2.55;1.08;;;10.00;66.30;;;;;;3586823;39;20020;-64
2021/05/05 05:00:03;;;;;;;2.40;1.08;;;10.00;65.60;;;;;;3586964;39;20676;-65
2021/05/05 05:02:28;;;;;;;3.63;1.23;;;10.00;66.60;;;;;;3582288;39;20153;-64
2021/05/05 05:04:54;;;;;;;1.55;1.10;;;10.00;65.90;;;;;;3586601;40;20492;-65
2021/05/05 05:07:20;;;;;;;9.63;2.72;;;10.00;65.90;;;;;;3588162;40;20119;-65
2021/05/05 05:09:45;;;;;;;3.63;1.40;;;10.10;66.50;;;;;;3585012;40;20032;-65
2021/05/05 05:12:11;;;;;;;3.88;1.13;;;10.00;65.40;;;;;;3587388;39;20109;-65
2021/05/05 05:14:37;;;;;;;4.57;1.02;;;10.10;65.20;;;;;;3586524;40;20375;-65
2021/05/05 05:17:04;;;;;;;3.20;1.67;;;10.10;64.90;;;;;;3580711;40;20028;-64
2021/05/05 05:19:29;;;;;;;4.43;1.23;;;10.10;64.50;;;;;;3582708;40;20413;-64
2021/05/05 05:21:55;;;;;;;3.40;1.20;;;10.10;65.60;;;;;;3583708;40;20031;-65
2021/05/05 05:24:21;;;;;;;3.88;1.25;;;10.00;64.30;;;;;;3584488;40;20028;-66
2021/05/05 05:26:47;;;;;;;4.82;1.10;;;10.00;65.00;;;;;;3586191;40;20024;-66
2021/05/05 05:29:12;;;;;;;2.80;1.20;;;10.10;64.50;;;;;;3588623;40;20570;-65
2021/05/05 05:31:38;;;;;;;2.88;1.10;;;10.10;65.10;;;;;;3585394;40;20040;-66
2021/05/05 05:34:04;;;;;;;6.95;1.75;;;10.00;64.40;;;;;;3584202;40;20333;-66
2021/05/05 05:36:30;;;;;;;4.13;1.20;;;10.00;64.60;;;;;;3584942;40;20669;-65
2021/05/05 05:38:55;;;;;;;3.35;1.10;;;10.00;64.70;;;;;;3586021;40;20036;-65
2021/05/05 05:41:21;;;;;;;2.85;1.05;;;10.00;63.80;;;;;;3585910;39;20035;-65
2021/05/05 05:43:47;;;;;;;4.90;1.15;;;10.10;64.50;;;;;;3584393;39;20041;-64
2021/05/05 05:46:13;;;;;;;2.75;1.25;;;10.00;64.10;;;;;;3585179;39;20091;-65
2021/05/05 05:48:39;;;;;;;5.10;1.70;;;10.10;64.60;;;;;;3586866;39;20314;-64
2021/05/05 05:51:05;;;;;;;4.93;2.22;;;10.20;64.20;;;;;;3585859;39;20720;-66
2021/05/05 05:53:31;;;;;;;2.67;1.13;;;10.30;64.00;;;;;;3585643;40;20047;-65
2021/05/05 05:55:57;;;;;;;4.88;1.70;;;10.30;63.60;;;;;;3586011;40;20080;-66
2021/05/05 05:58:22;;;;;;;3.63;1.60;;;10.30;63.10;;;;;;3582026;40;20051;-65
2021/05/05 06:00:48;;;;;;;3.25;1.15;;;10.40;63.50;;;;;;3581565;40;20129;-64
2021/05/05 06:03:14;;;;;;;6.65;0.98;;;10.40;62.90;;;;;;3583453;40;20614;-65
2021/05/05 06:05:39;;;;;;;4.03;1.63;;;10.60;63.30;;;;;;3584538;40;20036;-64
2021/05/05 06:08:05;;;;;;;1.67;1.02;;;10.80;62.10;;;;;;3583196;39;20042;-64
2021/05/05 06:10:32;;;;;;;4.53;1.20;;;11.20;61.50;;;;;;3582413;40;20021;-64
2021/05/05 06:12:58;;;;;;;4.60;1.25;;;11.10;59.80;;;;;;3582351;40;20048;-65
2021/05/05 06:15:24;;;;;;;1.75;0.90;;;11.10;60.10;;;;;;3583556;40;20024;-66
2021/05/05 06:17:50;;;;;;;3.83;1.20;;;11.10;60.20;;;;;;3586797;40;20125;-66
2021/05/05 06:20:16;;;;;;;1.98;1.17;;;11.10;60.40;;;;;;3585678;39;20036;-66
2021/05/05 06:22:42;;;;;;;2.00;1.55;;;11.40;60.10;;;;;;3584526;40;20032;-66
2021/05/05 06:25:09;;;;;;;4.22;1.20;;;11.50;59.50;;;;;;3585783;40;20156;-65
2021/05/05 06:27:35;;;;;;;3.50;1.38;;;11.80;58.70;;;;;;3591188;40;20720;-66
2021/05/05 06:30:06;;;;;;;4.05;0.98;;;12.00;58.30;;;;;;3588240;39;20056;-65
2021/05/05 06:32:32;;;;;;;4.50;1.52;;;12.20;57.20;;;;;;3588369;39;20052;-66
2021/05/05 06:34:58;;;;;;;2.08;1.25;;;12.20;57.10;;;;;;3588249;39;20718;-66
2021/05/05 06:37:24;;;;;;;4.10;1.88;;;12.10;57.00;;;;;;3585142;40;20104;-66
2021/05/05 06:39:50;;;;;;;2.80;1.58;;;11.90;57.50;;;;;;3586251;40;20028;-65
2021/05/05 06:42:15;;;;;;;1.63;1.30;;;11.70;57.70;;;;;;3585240;40;20047;-65
2021/05/05 06:44:41;;;;;;;3.08;1.67;;;11.50;58.00;;;;;;3588970;39;20083;-66
2021/05/05 06:47:07;;;;;;;4.13;1.27;;;11.10;58.70;;;;;;3586578;39;20044;-65
2021/05/05 06:49:34;;;;;;;5.20;1.42;;;11.00;60.40;;;;;;3586541;39;20021;-65
2021/05/05 06:52:01;;;;;;;3.95;1.77;;;11.00;60.00;;;;;;3584347;40;20580;-64
2021/05/05 06:54:26;;;;;;;6.05;3.15;;;10.80;59.80;;;;;;3589333;40;20028;-60
2021/05/05 06:56:52;;;;;;;3.75;2.15;;;10.70;60.90;;;;;;3588855;39;20028;-60
2021/05/05 06:59:18;;;;;;;4.63;1.75;;;11.00;60.70;;;;;;3589897;40;20044;-60
2021/05/05 07:01:43;;;;;;;2.45;1.40;;;11.00;59.50;;;;;;3583631;40;20033;-58
2021/05/05 07:04:10;;;;;;;1.85;1.20;;;11.10;59.50;;;;;;3589395;40;20302;-60
2021/05/05 07:06:36;;;;;;;3.03;1.30;;;11.30;59.90;;;;;;3590353;40;20659;-61
2021/05/05 07:09:04;;;;;;;3.50;1.50;;;11.60;59.00;;;;;;3587959;39;20310;-61
2021/05/05 07:11:32;;;;;;;4.28;1.25;;;11.90;57.40;;;;;;3586796;40;20029;-60
2021/05/05 07:13:58;;;;;;;4.13;1.48;;;12.00;57.20;;;;;;3587410;39;20052;-60
2021/05/05 07:16:24;;;;;;;2.30;1.42;;;12.00;57.60;;;;;;3585968;40;20028;-61
2021/05/05 07:18:49;;;;;;;2.83;1.58;;;11.90;57.20;;;;;;3584587;39;20036;-61
2021/05/05 07:21:15;;;;;;;4.47;1.70;;;11.90;57.30;;;;;;3581607;40;20029;-59
2021/05/05 07:23:43;;;;;;;2.40;1.65;;;11.80;57.30;;;;;;3587764;39;20079;-60
2021/05/05 07:26:10;;;;;;;7.70;3.55;;;11.80;57.50;;;;;;3584200;40;20024;-60
2021/05/05 07:28:36;;;;;;;3.47;1.77;;;11.90;57.90;;;;;;3586744;39;20099;-59
2021/05/05 07:31:02;;;;;;;5.32;2.53;;;12.00;57.40;;;;;;3585207;40;20065;-60
2021/05/05 07:33:27;;;;;;;3.00;1.35;;;12.10;56.50;;;;;;3585654;40;20052;-60
2021/05/05 07:35:56;;;;;;;8.25;3.45;;;12.10;55.90;;;;;;3585003;40;20039;-60
2021/05/05 07:38:41;;;;;;;2.33;1.20;;;12.10;56.30;;;;;;3587671;40;20402;-60
2021/05/05 07:44:19;;;;;;;3.33;1.30;;;12.50;56.00;;;;;;3586915;40;20043;-61
2021/05/05 07:51:17;;;;;;;2.97;1.40;;;12.70;55.20;;;;;;3585342;40;20348;-61
2021/05/05 07:53:43;;;;;;;3.92;1.45;;;13.20;55.10;;;;;;3587754;39;20021;-60
2021/05/05 07:56:09;;;;;;;2.53;1.20;;;13.50;53.30;;;;;;3586201;40;20317;-60
2021/05/05 07:58:34;;;;;;;1.20;1.08;;;13.60;53.10;;;;;;3585246;40;20028;-60
2021/05/05 08:01:01;;;;;;;3.58;1.13;;;13.80;52.90;;;;;;3585080;40;20032;-60
2021/05/05 08:03:27;;;;;;;0.82;0.82;;;13.70;51.30;;;;;;3591971;40;20417;-61
2021/05/05 08:05:53;;;;;;;2.97;1.33;;;13.40;52.10;;;;;;3583889;40;20125;-61
2021/05/05 08:08:18;;;;;;;4.25;2.40;;;13.40;51.80;;;;;;3586743;40;20040;-61
2021/05/05 08:10:44;;;;;;;3.08;1.50;;;13.60;51.00;;;;;;3587382;40;20036;-65
2021/05/05 08:13:10;;;;;;;4.20;1.77;;;13.60;51.30;;;;;;3584950;39;20040;-64
2021/05/05 08:15:37;;;;;;;4.65;1.30;;;13.60;52.50;;;;;;3583814;40;20867;-61
2021/05/05 08:18:04;;;;;;;1.48;1.23;;;13.60;52.70;;;;;;3586087;40;20047;-61
2021/05/05 08:20:34;;;;;;;3.45;1.33;;;13.40;51.80;;;;;;3584457;40;20033;-60
2021/05/05 08:23:00;;;;;;;5.88;1.10;;;13.20;52.00;;;;;;3586604;40;20044;-60
2021/05/05 08:25:25;;;;;;;1.55;1.45;;;13.10;53.50;;;;;;3587459;40;20025;-60
2021/05/05 08:27:51;;;;;;;3.30;1.30;;;12.80;55.30;;;;;;3588488;39;20117;-60
2021/05/05 08:30:17;;;;;;;2.90;1.40;;;12.60;55.50;;;;;;3590501;40;20036;-60
2021/05/05 08:32:46;;;;;;;1.73;1.08;;;12.50;56.80;;;;;;3587824;40;20044;-60
2021/05/05 08:35:12;;;;;;;2.95;1.30;;;12.40;56.20;;;;;;3588313;39;20040;-60
2021/05/05 08:37:38;;;;;;;1.10;0.95;;;12.40;57.90;;;;;;3585700;39;20036;-60
2021/05/05 08:40:08;;;;;;;1.45;1.10;;;12.50;56.50;;;;;;3587739;40;20630;-61
2021/05/05 08:42:34;;;;;;;3.58;1.00;;;12.90;54.30;;;;;;3583144;40;20039;-60
2021/05/05 08:45:00;;;;;;;0.95;0.90;;;13.60;54.20;;;;;;3589490;40;20025;-60
2021/05/05 08:47:26;;;;;;;1.40;0.80;;;14.20;50.60;;;;;;3588566;40;20106;-60
2021/05/05 08:49:52;;;;;;;3.42;1.02;;;14.60;48.60;;;;;;3586666;40;20085;-62
2021/05/05 08:52:18;;;;;;;1.35;0.75;;;14.60;48.40;;;;;;3586527;40;20046;-59
2021/05/05 08:54:43;;;;;;;2.55;1.40;;;14.60;46.80;;;;;;3588865;40;20121;-60
2021/05/05 08:57:09;;;;;;;3.45;0.80;;;14.60;47.40;;;;;;3584983;39;20016;-60
2021/05/05 08:59:36;;;;;;;3.80;1.45;;;14.40;46.90;;;;;;3588719;40;20024;-61
2021/05/05 09:02:01;;;;;;;1.13;0.80;;;14.30;47.00;;;;;;3584381;40;20047;-60
2021/05/05 09:04:27;;;;;;;2.70;1.25;;;14.20;46.80;;;;;;3585700;40;20103;-59
2021/05/05 09:06:58;;;;;;;1.27;0.80;;;14.20;46.70;;;;;;3586997;40;20024;-60
2021/05/05 09:09:41;;;;;;;1.58;0.73;;;14.00;46.20;;;;;;3588380;40;20034;-60
2021/05/05 09:12:22;;;;;;;1.35;0.73;;;13.80;48.40;;;;;;3585680;39;20029;-60
2021/05/05 09:14:54;;;;;;;3.60;0.80;;;13.80;49.50;;;;;;3586014;40;20036;-60
2021/05/05 09:17:22;;;;;;;3.40;0.80;;;14.10;50.20;;;;;;3585379;40;20080;-63
2021/05/05 09:19:48;;;;;;;1.95;0.70;;;14.50;48.70;;;;;;3586630;39;20040;-61
2021/05/05 09:22:40;;;;;;;1.65;0.80;;;14.70;47.50;;;;;;3587304;40;20132;-60
2021/05/05 09:25:09;;;;;;;1.17;0.82;;;14.80;48.10;;;;;;3583671;40;20345;-60
2021/05/05 09:27:36;;;;;;;3.85;1.20;;;14.50;46.70;;;;;;3584549;40;20629;-60
2021/05/05 09:30:05;;;;;;;3.05;1.83;;;14.20;47.70;;;;;;3583274;40;20457;-60
2021/05/05 09:32:50;;;;;;;2.33;1.45;;;13.90;50.40;;;;;;3584780;39;20133;-60
2021/05/05 09:35:16;;;;;;;5.25;1.48;;;13.40;52.80;;;;;;3587538;40;20035;-60
2021/05/05 09:37:53;;;;;;;4.43;1.40;;;12.80;55.40;;;;;;3582686;40;20382;-61
2021/05/05 09:40:19;;;;;;;1.20;1.10;;;12.30;60.30;;;;;;3584700;39;20043;-60
2021/05/05 09:42:45;;;;;;;2.78;1.30;;;11.90;60.80;;;;;;3588309;39;20613;-61
2021/05/05 09:45:12;;;;;;;2.20;1.25;;;11.60;64.90;;;;;;3585173;40;20025;-60
2021/05/05 09:47:50;;;;;;;1.40;1.30;;;11.80;68.00;;;;;;3584275;40;20035;-60
2021/05/05 09:50:41;;;;;;;2.00;1.23;;;12.10;69.60;;;;;;3588385;40;20031;-60
2021/05/05 09:53:27;;;;;;;2.45;1.20;;;12.60;67.40;;;;;;3586365;39;20551;-60
2021/05/05 09:55:59;;;;;;;1.67;1.30;;;13.10;62.70;;;;;;3586709;39;20851;-60
2021/05/05 09:58:30;;;;;;;3.72;1.27;;;13.40;63.70;;;;;;3584537;40;20040;-60
2021/05/05 10:01:05;;;;;;;3.15;1.33;;;13.70;65.70;;;;;;3586153;40;20033;-60
2021/05/05 10:03:51;;;;;;;2.70;1.58;;;14.10;62.90;;;;;;3583124;40;20041;-61
2021/05/05 10:06:23;;;;;;;1.63;1.25;;;14.50;63.30;;;;;;3582247;40;20358;-60
2021/05/05 10:09:04;;;;;;;3.55;1.70;;;15.10;60.60;;;;;;3583452;40;20048;-60
2021/05/05 10:11:35;;;;;;;3.72;1.73;;;15.60;57.60;;;;;;3587493;40;20048;-60
2021/05/05 10:14:15;;;;;;;2.33;0.90;;;15.50;51.80;;;;;;3585027;39;20421;-60
2021/05/05 10:16:50;;;;;;;2.53;1.33;;;15.40;51.10;;;;;;3583875;39;20032;-60
2021/05/05 10:19:22;;;;;;;1.10;0.80;;;15.20;52.50;;;;;;3579854;40;20458;-60
2021/05/05 10:21:56;;;;;;;2.92;1.33;;;15.10;51.70;;;;;;3584535;40;20595;-60
2021/05/05 10:24:24;;;;;;;1.15;0.85;;;15.30;53.90;;;;;;3583058;40;20025;-59
2021/05/05 10:26:50;;;;;;;0.82;0.73;;;15.50;49.10;;;;;;3584533;40;20048;-60
2021/05/05 10:29:17;;;;;;;2.40;0.82;;;15.70;49.10;;;;;;3584972;40;20036;-60
2021/05/05 10:31:49;;;;;;;2.00;0.90;;;15.90;48.50;;;;;;3583252;39;20040;-60
2021/05/05 10:34:21;;;;;;;3.92;0.80;;;15.90;48.50;;;;;;3584500;39;20114;-61
2021/05/05 10:36:59;;;;;;;1.70;0.82;;;15.70;49.10;;;;;;3588620;39;20521;-60
2021/05/05 10:39:39;;;;;;;0.70;0.50;;;15.60;48.40;;;;;;3582871;40;20679;-60
2021/05/05 10:42:12;;;;;;;4.30;0.75;;;15.70;47.80;;;;;;3583909;40;20035;-59
2021/05/05 10:45:00;;;;;;;2.65;1.00;;;15.60;49.20;;;;;;3586921;40;20029;-60
2021/05/05 10:47:31;;;;;;;2.20;1.10;;;15.70;49.30;;;;;;3582476;40;20043;-60
2021/05/05 10:52:29;;;;;;;3.95;0.75;;;15.20;46.60;;;;;;3587146;40;20032;-60
2021/05/05 10:54:57;;;;;;;1.05;0.50;;;14.90;48.00;;;;;;3588271;39;20173;-60
2021/05/05 10:57:25;;;;;;;3.90;0.68;;;14.70;49.60;;;;;;3585740;39;20083;-60
2021/05/05 10:59:57;;;;;;;1.42;0.50;;;14.80;47.10;;;;;;3586899;39;20024;-60
2021/05/05 11:02:38;;;;;;;0.55;0.40;;;15.10;48.70;;;;;;3587446;39;20024;-60
2021/05/05 11:05:28;;;;;;;0.93;0.47;;;15.40;49.00;;;;;;3585835;40;20645;-60
2021/05/05 11:07:58;;;;;;;1.52;0.40;;;15.30;47.20;;;;;;3587869;40;20036;-60
2021/05/05 11:10:33;;;;;;;2.28;0.40;;;15.00;47.50;;;;;;3585996;40;20028;-60
2021/05/05 11:13:04;;;;;;;0.40;0.33;;;15.00;49.30;;;;;;3587623;40;20028;-60
2021/05/05 11:15:42;;;;;;;4.07;0.32;;;15.00;45.80;;;;;;3587757;40;20031;-60
2021/05/05 11:18:38;;;;;;;1.42;0.50;;;14.90;47.70;;;;;;3593049;39;20027;-59
2021/05/05 11:21:26;;;;;;;1.88;0.50;;;14.80;44.10;;;;;;3584406;40;20036;-60
2021/05/05 11:23:52;;;;;;;2.85;0.40;;;14.70;46.20;;;;;;3587314;40;20039;-60
2021/05/05 11:26:29;;;;;;;1.33;0.32;;;14.80;47.20;;;;;;3584798;40;20036;-60
2021/05/05 11:29:10;;;;;;;10.05;0.40;;;14.80;45.50;;;;;;3585273;40;20043;-60
2021/05/05 11:31:49;;;;;;;3.80;0.40;;;15.00;46.20;;;;;;3586997;40;20044;-61
2021/05/05 11:34:18;;;;;;;1.35;0.40;;;15.20;46.10;;;;;;3583093;39;20597;-61
2021/05/05 11:36:47;;;;;;;2.22;0.40;;;15.10;44.80;;;;;;3586190;40;20035;-60
2021/05/05 11:39:27;;;;;;;7.45;1.00;;;14.90;45.80;;;;;;3587032;40;20028;-61
2021/05/05 11:42:00;;;;;;;1.23;0.35;;;14.80;45.50;;;;;;3584546;39;20424;-61
2021/05/05 11:44:42;;;;;;;3.63;0.70;;;14.70;44.20;;;;;;3584090;39;20039;-60
2021/05/05 11:47:11;;;;;;;2.13;0.60;;;14.70;44.70;;;;;;3585988;40;20366;-60
2021/05/05 11:49:42;;;;;;;3.40;1.05;;;14.80;46.60;;;;;;3587190;40;20048;-60
2021/05/05 11:52:28;;;;;;;5.32;0.93;;;14.90;47.80;;;;;;3589098;40;20039;-60
2021/05/05 11:54:57;;;;;;;4.40;0.73;;;15.10;47.70;;;;;;3582500;40;20024;-60
2021/05/05 11:57:29;;;;;;;3.40;0.80;;;15.10;47.30;;;;;;3585352;40;20032;-61
2021/05/05 11:59:55;;;;;;;3.00;0.90;;;15.30;45.70;;;;;;3585119;40;20025;-58
2021/05/05 12:02:22;;;;;;;5.22;0.88;;;15.30;46.20;;;;;;3587615;40;20057;-60
2021/05/05 12:04:50;;;;;;;3.70;1.20;;;15.30;44.60;;;;;;3589611;39;20091;-60
2021/05/05 12:07:18;;;;;;;2.92;1.10;;;15.30;46.20;;;;;;3587864;40;20028;-60
2021/05/05 12:09:45;;;;;;;4.65;1.10;;;15.20;44.90;;;;;;3573552;40;20105;-60
2021/05/05 12:12:28;;;;;;;4.78;0.80;;;15.10;47.40;;;;;;3584778;40;20052;-60
2021/05/05 12:15:02;;;;;;;1.60;0.70;;;15.10;46.20;;;;;;3586469;40;20420;-60
2021/05/05 12:17:40;;;;;;;2.55;0.60;;;15.10;46.60;;;;;;3586187;40;20743;-59
2021/05/05 12:20:12;;;;;;;2.28;1.00;;;15.30;45.30;;;;;;3584113;40;20593;-59
2021/05/05 12:22:56;;;;;;;4.35;0.85;;;15.30;45.70;;;;;;3583076;40;20066;-60
2021/05/05 12:25:24;;;;;;;4.03;0.93;;;15.50;45.50;;;;;;3587908;40;20040;-61
2021/05/05 12:27:59;;;;;;;4.97;1.00;;;15.50;46.10;;;;;;3586692;39;20402;-60
2021/05/05 12:30:42;;;;;;;4.10;1.00;;;15.60;45.60;;;;;;3589712;39;20322;-60
2021/05/05 12:33:08;;;;;;;2.67;0.85;;;15.50;44.70;;;;;;3583721;40;20041;-60
2021/05/05 12:35:35;;;;;;;1.60;0.75;;;15.30;46.30;;;;;;3583810;40;20093;-60
2021/05/05 12:38:11;;;;;;;2.35;1.10;;;15.20;46.60;;;;;;3587146;40;20036;-60
2021/05/05 12:40:37;;;;;;;3.50;1.00;;;15.10;46.10;;;;;;3586526;40;20051;-61
2021/05/05 12:43:15;;;;;;;2.70;1.02;;;15.10;48.10;;;;;;3588959;40;20027;-61
2021/05/05 12:45:41;;;;;;;3.22;1.20;;;15.10;49.70;;;;;;3583779;40;20083;-60
2021/05/05 12:48:08;;;;;;;4.00;0.90;;;15.10;50.00;;;;;;3583452;40;20020;-60
2021/05/05 12:50:39;;;;;;;4.35;0.90;;;14.60;48.90;;;;;;3586349;40;20057;-60
2021/05/05 12:53:05;;;;;;;4.60;1.05;;;14.10;52.00;;;;;;3585789;39;20032;-60
2021/05/05 12:55:34;;;;;;;3.88;0.88;;;13.90;51.60;;;;;;3582638;40;20034;-61
2021/05/05 12:58:01;;;;;;;5.57;0.80;;;13.80;53.20;;;;;;3582765;40;20112;-60
2021/05/05 13:00:28;;;;;;;1.13;0.63;;;13.80;53.00;;;;;;3582113;40;20037;-61
2021/05/05 13:03:02;;;;;;;2.08;0.73;;;14.00;51.90;;;;;;3584096;39;20088;-60
2021/05/05 13:05:28;;;;;;;2.88;0.57;;;14.10;53.00;;;;;;3586619;39;20027;-60